Kirkwood, CA (95646)

4:48 AM PDT on August 27, 2016 (GMT -0700)
Sierra-at-Tahoe Resort | | Change Station

Elev 7306 ft 38.80 °N, 120.08 °W | Updated 10 seconds ago

Clear
Clear
51.4 °F
Feels Like 51.4 °F
N
0.0
Wind Variable Wind from South
Gusts 0.0 mph

Today
High -- | Low -- °F
--% Chance of Precip.
Yesterday
High -- | Low -- °F
Precip. -- in
Pressure 30.05 in
Visibility 10.0 miles
Clouds Clear
Dew Point 29 °F
Humidity 42%
Rainfall 0.00 in
Snow Depth Not available.
6:25 AM 7:37 PM
Waning Crescent, 25% visible
METAR KTVL 271053Z AUTO 21003KT 10SM CLR 06/01 A3020 RMK AO2 SLP175 T00560006
Pressure 30.05 in
Visibility 10.0 miles
Clouds Clear
Dew Point 29 °F
Humidity 42%
Rainfall 0.00 in
Snow Depth Not available.
6:25 AM 7:37 PM
Waning Crescent, 25% visible
METAR KTVL 271053Z AUTO 21003KT 10SM CLR 06/01 A3020 RMK AO2 SLP175 T00560006

10-Day Weather Forecast

Almanac

Astronomy

Aug. 27, 2016 Rise Set
Actual Time
Civil Twilight
Nautical Twilight
Astronomical Twilight
Moon
Length of Visible Light
Length of Day
Tomorrow will be .
, % of the Moon is Illuminated

Today's Extremes

State Highs State Lows

Community

WunderPhotos

Upload Photos

1,935,325 photos uploaded!

WunderBlog® & News

Nearby

Air Quality

  Air Quality AQ Index Pollutant
Not available.

Snow Depth

Station Depth Elevation

Earthquake Activity

City Distance Mag. Time & Date
Minimum magnitude displayed is 2.5.

Coastal Water Temperatures

Place Temperature

Stations

Nearby Weather Stations

Station Location Temp. Windchill Dew Point Humidity Wind Precip. Elev Updated Type
                   

Watches & Warnings

There are currently no watches in effect.